sensor_id;sensor_type;location;lat;lon;timestamp;temperature;humidity
3268;DHT22;1646;52.450;13.326;2023-04-16T00:04:14;12.00;99.90
3268;DHT22;1646;52.450;13.326;2023-04-16T00:09:12;12.10;99.90
3268;DHT22;1646;52.450;13.326;2023-04-16T00:14:12;12.10;99.90
3268;DHT22;1646;52.450;13.326;2023-04-16T00:19:10;12.10;99.90
3268;DHT22;1646;52.450;13.326;2023-04-16T00:24:09;12.10;99.90
3268;DHT22;1646;52.450;13.326;2023-04-16T00:29:07;12.10;99.90
3268;DHT22;1646;52.450;13.326;2023-04-16T00:34:07;12.00;99.90
3268;DHT22;1646;52.450;13.326;2023-04-16T00:39:05;12.00;99.90
3268;DHT22;1646;52.450;13.326;2023-04-16T00:44:04;12.00;99.90
3268;DHT22;1646;52.450;13.326;2023-04-16T00:49:03;12.00;99.90
3268;DHT22;1646;52.450;13.326;2023-04-16T00:54:02;12.00;99.90
3268;DHT22;1646;52.450;13.326;2023-04-16T00:59:01;12.00;99.90
3268;DHT22;1646;52.450;13.326;2023-04-16T01:03:59;12.00;99.90
3268;DHT22;1646;52.450;13.326;2023-04-16T01:08:57;12.10;99.90
3268;DHT22;1646;52.450;13.326;2023-04-16T01:13:57;12.10;99.90
3268;DHT22;1646;52.450;13.326;2023-04-16T01:18:56;12.10;99.90
3268;DHT22;1646;52.450;13.326;2023-04-16T01:23:55;12.10;99.90
3268;DHT22;1646;52.450;13.326;2023-04-16T01:28:54;12.10;99.90
3268;DHT22;1646;52.450;13.326;2023-04-16T01:33:52;12.10;99.90
3268;DHT22;1646;52.450;13.326;2023-04-16T01:38:51;12.20;99.90
3268;DHT22;1646;52.450;13.326;2023-04-16T01:43:51;12.00;99.90
3268;DHT22;1646;52.450;13.326;2023-04-16T01:48:49;12.00;99.90
3268;DHT22;1646;52.450;13.326;2023-04-16T01:53:50;12.00;99.90
3268;DHT22;1646;52.450;13.326;2023-04-16T01:58:48;12.00;99.90
3268;DHT22;1646;52.450;13.326;2023-04-16T02:03:50;11.90;99.90
3268;DHT22;1646;52.450;13.326;2023-04-16T02:08:49;11.90;99.90
3268;DHT22;1646;52.450;13.326;2023-04-16T02:13:47;11.90;99.90
3268;DHT22;1646;52.450;13.326;2023-04-16T02:18:48;11.90;99.90
3268;DHT22;1646;52.450;13.326;2023-04-16T02:23:49;11.90;99.90
3268;DHT22;1646;52.450;13.326;2023-04-16T02:28:53;11.80;99.90
3268;DHT22;1646;52.450;13.326;2023-04-16T02:33:57;11.80;99.90
3268;DHT22;1646;52.450;13.326;2023-04-16T02:38:56;11.80;99.90
3268;DHT22;1646;52.450;13.326;2023-04-16T02:43:54;11.80;99.90
3268;DHT22;1646;52.450;13.326;2023-04-16T02:48:53;11.70;99.90
3268;DHT22;1646;52.450;13.326;2023-04-16T02:53:53;11.70;99.90
3268;DHT22;1646;52.450;13.326;2023-04-16T02:58:51;11.60;99.90
3268;DHT22;1646;52.450;13.326;2023-04-16T03:03:49;11.60;99.90
3268;DHT22;1646;52.450;13.326;2023-04-16T03:08:47;11.60;99.90
3268;DHT22;1646;52.450;13.326;2023-04-16T03:13:47;11.60;99.90
3268;DHT22;1646;52.450;13.326;2023-04-16T03:18:45;11.50;99.90
3268;DHT22;1646;52.450;13.326;2023-04-16T03:23:46;11.50;99.90
3268;DHT22;1646;52.450;13.326;2023-04-16T03:28:44;11.40;99.90
3268;DHT22;1646;52.450;13.326;2023-04-16T03:33:44;11.30;99.90
3268;DHT22;1646;52.450;13.326;2023-04-16T03:38:42;11.20;99.90
3268;DHT22;1646;52.450;13.326;2023-04-16T03:43:41;11.20;99.90
3268;DHT22;1646;52.450;13.326;2023-04-16T03:48:39;11.30;99.90
3268;DHT22;1646;52.450;13.326;2023-04-16T03:53:39;11.20;99.90
3268;DHT22;1646;52.450;13.326;2023-04-16T03:58:38;11.10;99.90
3268;DHT22;1646;52.450;13.326;2023-04-16T04:03:37;11.10;99.90
3268;DHT22;1646;52.450;13.326;2023-04-16T04:08:36;11.30;99.90
3268;DHT22;1646;52.450;13.326;2023-04-16T04:13:37;11.20;99.90
3268;DHT22;1646;52.450;13.326;2023-04-16T04:18:35;11.20;99.90
3268;DHT22;1646;52.450;13.326;2023-04-16T04:23:35;11.20;99.90
3268;DHT22;1646;52.450;13.326;2023-04-16T04:28:36;11.10;99.90
3268;DHT22;1646;52.450;13.326;2023-04-16T04:33:34;11.10;99.90
3268;DHT22;1646;52.450;13.326;2023-04-16T04:38:33;11.10;99.90
3268;DHT22;1646;52.450;13.326;2023-04-16T04:43:32;11.10;99.90
3268;DHT22;1646;52.450;13.326;2023-04-16T04:48:32;11.00;99.90
3268;DHT22;1646;52.450;13.326;2023-04-16T04:53:31;11.10;99.90
3268;DHT22;1646;52.450;13.326;2023-04-16T04:58:29;11.10;99.90
3268;DHT22;1646;52.450;13.326;2023-04-16T05:03:28;11.20;99.90
3268;DHT22;1646;52.450;13.326;2023-04-16T05:08:27;11.20;99.90
3268;DHT22;1646;52.450;13.326;2023-04-16T05:13:25;11.20;99.90
3268;DHT22;1646;52.450;13.326;2023-04-16T05:18:24;11.20;99.90
3268;DHT22;1646;52.450;13.326;2023-04-16T05:23:22;11.10;99.90
3268;DHT22;1646;52.450;13.326;2023-04-16T05:28:22;11.10;99.90
3268;DHT22;1646;52.450;13.326;2023-04-16T05:33:22;11.20;99.90
3268;DHT22;1646;52.450;13.326;2023-04-16T05:38:21;11.20;99.90
3268;DHT22;1646;52.450;13.326;2023-04-16T05:43:19;11.30;99.90
3268;DHT22;1646;52.450;13.326;2023-04-16T05:48:18;11.20;99.90
3268;DHT22;1646;52.450;13.326;2023-04-16T05:53:17;11.20;99.90
3268;DHT22;1646;52.450;13.326;2023-04-16T05:58:15;11.10;99.90
3268;DHT22;1646;52.450;13.326;2023-04-16T06:03:14;11.20;99.90
3268;DHT22;1646;52.450;13.326;2023-04-16T06:08:14;11.20;99.90
3268;DHT22;1646;52.450;13.326;2023-04-16T06:13:12;11.20;99.90
3268;DHT22;1646;52.450;13.326;2023-04-16T06:18:10;11.30;99.90
3268;DHT22;1646;52.450;13.326;2023-04-16T06:23:08;11.30;99.90
3268;DHT22;1646;52.450;13.326;2023-04-16T06:28:08;11.40;99.90
3268;DHT22;1646;52.450;13.326;2023-04-16T06:33:06;11.40;99.90
3268;DHT22;1646;52.450;13.326;2023-04-16T06:38:05;11.40;99.90
3268;DHT22;1646;52.450;13.326;2023-04-16T06:43:03;11.40;99.90
3268;DHT22;1646;52.450;13.326;2023-04-16T06:48:02;11.50;99.90
3268;DHT22;1646;52.450;13.326;2023-04-16T06:53:01;11.60;99.90
3268;DHT22;1646;52.450;13.326;2023-04-16T06:57:59;11.60;99.90
3268;DHT22;1646;52.450;13.326;2023-04-16T07:02:59;11.80;99.90
3268;DHT22;1646;52.450;13.326;2023-04-16T07:07:59;11.70;99.90
3268;DHT22;1646;52.450;13.326;2023-04-16T07:12:58;11.70;99.90
3268;DHT22;1646;52.450;13.326;2023-04-16T07:17:57;11.70;99.90
3268;DHT22;1646;52.450;13.326;2023-04-16T07:22:55;11.80;99.90
3268;DHT22;1646;52.450;13.326;2023-04-16T07:27:56;11.90;99.90
3268;DHT22;1646;52.450;13.326;2023-04-16T07:32:54;12.00;99.90
3268;DHT22;1646;52.450;13.326;2023-04-16T07:37:53;12.10;99.90
3268;DHT22;1646;52.450;13.326;2023-04-16T07:42:51;12.10;99.90
3268;DHT22;1646;52.450;13.326;2023-04-16T07:47:50;11.90;99.90
3268;DHT22;1646;52.450;13.326;2023-04-16T07:52:49;11.90;99.90
3268;DHT22;1646;52.450;13.326;2023-04-16T07:57:47;11.90;99.90
3268;DHT22;1646;52.450;13.326;2023-04-16T08:02:45;12.00;99.90
3268;DHT22;1646;52.450;13.326;2023-04-16T08:07:45;12.00;99.90
3268;DHT22;1646;52.450;13.326;2023-04-16T08:12:43;12.10;99.90
3268;DHT22;1646;52.450;13.326;2023-04-16T08:17:42;12.10;99.90
3268;DHT22;1646;52.450;13.326;2023-04-16T08:22:40;12.10;99.90
3268;DHT22;1646;52.450;13.326;2023-04-16T08:27:39;12.00;99.90
3268;DHT22;1646;52.450;13.326;2023-04-16T08:32:38;12.00;99.90
3268;DHT22;1646;52.450;13.326;2023-04-16T08:37:36;12.00;99.90
3268;DHT22;1646;52.450;13.326;2023-04-16T08:42:41;12.00;99.90
3268;DHT22;1646;52.450;13.326;2023-04-16T08:47:45;12.10;99.90
3268;DHT22;1646;52.450;13.326;2023-04-16T08:52:49;12.10;99.90
3268;DHT22;1646;52.450;13.326;2023-04-16T08:57:51;12.20;99.90
3268;DHT22;1646;52.450;13.326;2023-04-16T09:02:50;12.10;99.90
3268;DHT22;1646;52.450;13.326;2023-04-16T09:07:49;12.10;99.90
3268;DHT22;1646;52.450;13.326;2023-04-16T09:12:50;12.10;99.90
3268;DHT22;1646;52.450;13.326;2023-04-16T09:17:48;12.10;99.90
3268;DHT22;1646;52.450;13.326;2023-04-16T09:22:46;12.10;99.90
3268;DHT22;1646;52.450;13.326;2023-04-16T09:27:49;12.10;99.90
3268;DHT22;1646;52.450;13.326;2023-04-16T09:32:48;12.00;99.90
3268;DHT22;1646;52.450;13.326;2023-04-16T09:37:57;12.00;99.90
3268;DHT22;1646;52.450;13.326;2023-04-16T09:42:58;12.10;99.90
3268;DHT22;1646;52.450;13.326;2023-04-16T09:48:02;12.10;99.90
3268;DHT22;1646;52.450;13.326;2023-04-16T09:53:01;12.30;99.90
3268;DHT22;1646;52.450;13.326;2023-04-16T09:58:02;12.50;99.90
3268;DHT22;1646;52.450;13.326;2023-04-16T10:03:03;12.50;99.90
3268;DHT22;1646;52.450;13.326;2023-04-16T10:08:10;12.60;99.90
3268;DHT22;1646;52.450;13.326;2023-04-16T10:13:10;12.70;99.90
3268;DHT22;1646;52.450;13.326;2023-04-16T10:18:13;12.60;99.90
3268;DHT22;1646;52.450;13.326;2023-04-16T10:23:12;12.60;99.90
3268;DHT22;1646;52.450;13.326;2023-04-16T10:28:13;12.50;99.90
3268;DHT22;1646;52.450;13.326;2023-04-16T10:33:12;12.50;99.90
3268;DHT22;1646;52.450;13.326;2023-04-16T10:38:28;12.50;99.90
3268;DHT22;1646;52.450;13.326;2023-04-16T10:43:31;12.50;99.90
3268;DHT22;1646;52.450;13.326;2023-04-16T10:48:30;12.70;99.90
3268;DHT22;1646;52.450;13.326;2023-04-16T10:53:47;13.00;99.90
3268;DHT22;1646;52.450;13.326;2023-04-16T10:58:46;12.90;99.90
3268;DHT22;1646;52.450;13.326;2023-04-16T11:03:46;12.80;99.90
3268;DHT22;1646;52.450;13.326;2023-04-16T11:08:45;12.80;99.90
3268;DHT22;1646;52.450;13.326;2023-04-16T11:13:55;12.80;99.90
3268;DHT22;1646;52.450;13.326;2023-04-16T11:18:53;12.90;99.90
3268;DHT22;1646;52.450;13.326;2023-04-16T11:23:53;12.90;99.90
3268;DHT22;1646;52.450;13.326;2023-04-16T11:28:54;12.90;99.90
3268;DHT22;1646;52.450;13.326;2023-04-16T11:33:55;13.00;99.90
3268;DHT22;1646;52.450;13.326;2023-04-16T11:39:00;13.00;99.90
3268;DHT22;1646;52.450;13.326;2023-04-16T11:44:16;13.10;99.90
3268;DHT22;1646;52.450;13.326;2023-04-16T11:49:14;13.30;99.90
3268;DHT22;1646;52.450;13.326;2023-04-16T11:54:19;13.50;99.90
3268;DHT22;1646;52.450;13.326;2023-04-16T11:59:20;13.60;99.90
3268;DHT22;1646;52.450;13.326;2023-04-16T12:04:20;13.80;99.90
3268;DHT22;1646;52.450;13.326;2023-04-16T12:09:24;13.60;99.90
3268;DHT22;1646;52.450;13.326;2023-04-16T12:14:24;13.30;99.90
3268;DHT22;1646;52.450;13.326;2023-04-16T12:19:22;13.10;99.90
3268;DHT22;1646;52.450;13.326;2023-04-16T12:24:24;13.00;99.90
3268;DHT22;1646;52.450;13.326;2023-04-16T12:29:25;13.00;99.90
3268;DHT22;1646;52.450;13.326;2023-04-16T12:34:23;13.00;99.90
3268;DHT22;1646;52.450;13.326;2023-04-16T12:39:42;13.00;99.90
3268;DHT22;1646;52.450;13.326;2023-04-16T12:44:44;12.80;99.90
3268;DHT22;1646;52.450;13.326;2023-04-16T12:49:42;12.60;99.90
3268;DHT22;1646;52.450;13.326;2023-04-16T12:54:41;12.50;99.90
3268;DHT22;1646;52.450;13.326;2023-04-16T12:59:39;12.40;99.90
3268;DHT22;1646;52.450;13.326;2023-04-16T13:04:39;12.50;99.90
3268;DHT22;1646;52.450;13.326;2023-04-16T13:09:38;12.50;99.90
3268;DHT22;1646;52.450;13.326;2023-04-16T13:14:36;12.60;99.90
3268;DHT22;1646;52.450;13.326;2023-04-16T13:19:35;12.60;99.90
3268;DHT22;1646;52.450;13.326;2023-04-16T13:24:34;12.50;99.90
3268;DHT22;1646;52.450;13.326;2023-04-16T13:29:33;12.40;99.90
3268;DHT22;1646;52.450;13.326;2023-04-16T13:34:32;12.40;99.90
3268;DHT22;1646;52.450;13.326;2023-04-16T13:39:30;12.40;99.90
3268;DHT22;1646;52.450;13.326;2023-04-16T13:44:30;12.30;99.90
3268;DHT22;1646;52.450;13.326;2023-04-16T13:49:28;12.30;99.90
3268;DHT22;1646;52.450;13.326;2023-04-16T13:54:44;12.40;99.90
3268;DHT22;1646;52.450;13.326;2023-04-16T13:59:49;12.60;99.90
3268;DHT22;1646;52.450;13.326;2023-04-16T14:04:47;12.80;99.90
3268;DHT22;1646;52.450;13.326;2023-04-16T14:09:46;13.00;99.90
3268;DHT22;1646;52.450;13.326;2023-04-16T14:14:44;13.10;99.90
3268;DHT22;1646;52.450;13.326;2023-04-16T14:19:44;13.30;99.90
3268;DHT22;1646;52.450;13.326;2023-04-16T14:24:42;13.30;99.90
3268;DHT22;1646;52.450;13.326;2023-04-16T14:29:40;13.40;99.90
3268;DHT22;1646;52.450;13.326;2023-04-16T14:34:39;13.40;99.90
3268;DHT22;1646;52.450;13.326;2023-04-16T14:39:39;13.40;99.90
3268;DHT22;1646;52.450;13.326;2023-04-16T14:44:37;13.30;99.90
3268;DHT22;1646;52.450;13.326;2023-04-16T14:49:35;13.40;99.90
3268;DHT22;1646;52.450;13.326;2023-04-16T14:54:34;13.30;99.90
3268;DHT22;1646;52.450;13.326;2023-04-16T14:59:34;13.20;99.90
3268;DHT22;1646;52.450;13.326;2023-04-16T15:04:32;13.30;99.90
3268;DHT22;1646;52.450;13.326;2023-04-16T15:09:32;13.10;99.90
3268;DHT22;1646;52.450;13.326;2023-04-16T15:14:30;13.00;99.90
3268;DHT22;1646;52.450;13.326;2023-04-16T15:19:30;12.90;99.90
3268;DHT22;1646;52.450;13.326;2023-04-16T15:24:28;12.80;99.90
3268;DHT22;1646;52.450;13.326;2023-04-16T15:29:26;12.70;99.90
3268;DHT22;1646;52.450;13.326;2023-04-16T15:34:26;12.60;99.90
3268;DHT22;1646;52.450;13.326;2023-04-16T15:39:25;12.50;99.90
3268;DHT22;1646;52.450;13.326;2023-04-16T15:44:23;12.50;99.90
3268;DHT22;1646;52.450;13.326;2023-04-16T15:49:21;12.50;99.90
3268;DHT22;1646;52.450;13.326;2023-04-16T15:54:20;12.60;99.90
3268;DHT22;1646;52.450;13.326;2023-04-16T15:59:20;12.60;99.90
3268;DHT22;1646;52.450;13.326;2023-04-16T16:04:18;12.60;99.90
3268;DHT22;1646;52.450;13.326;2023-04-16T16:09:19;12.60;99.90
3268;DHT22;1646;52.450;13.326;2023-04-16T16:14:23;12.70;99.90
3268;DHT22;1646;52.450;13.326;2023-04-16T16:19:22;12.70;99.90
3268;DHT22;1646;52.450;13.326;2023-04-16T16:24:21;12.70;99.90
3268;DHT22;1646;52.450;13.326;2023-04-16T16:29:19;12.70;99.90
3268;DHT22;1646;52.450;13.326;2023-04-16T16:34:18;12.60;99.90
3268;DHT22;1646;52.450;13.326;2023-04-16T16:39:17;12.50;99.90
3268;DHT22;1646;52.450;13.326;2023-04-16T16:44:20;12.50;99.90
3268;DHT22;1646;52.450;13.326;2023-04-16T16:49:20;12.40;99.90
3268;DHT22;1646;52.450;13.326;2023-04-16T16:54:18;12.20;99.90
3268;DHT22;1646;52.450;13.326;2023-04-16T16:59:16;12.10;99.90
3268;DHT22;1646;52.450;13.326;2023-04-16T17:04:14;12.10;99.90
3268;DHT22;1646;52.450;13.326;2023-04-16T17:09:17;12.00;99.90
3268;DHT22;1646;52.450;13.326;2023-04-16T17:14:15;12.00;99.90
3268;DHT22;1646;52.450;13.326;2023-04-16T17:19:14;12.10;99.90
3268;DHT22;1646;52.450;13.326;2023-04-16T17:24:13;12.00;99.90
3268;DHT22;1646;52.450;13.326;2023-04-16T17:29:12;11.80;99.90
3268;DHT22;1646;52.450;13.326;2023-04-16T17:34:10;11.70;99.90
3268;DHT22;1646;52.450;13.326;2023-04-16T17:39:09;11.60;99.90
3268;DHT22;1646;52.450;13.326;2023-04-16T17:44:07;11.60;99.90
3268;DHT22;1646;52.450;13.326;2023-04-16T17:49:09;11.70;99.90
3268;DHT22;1646;52.450;13.326;2023-04-16T17:54:08;11.70;99.90
3268;DHT22;1646;52.450;13.326;2023-04-16T17:59:06;11.70;99.90
3268;DHT22;1646;52.450;13.326;2023-04-16T18:04:05;11.60;99.90
3268;DHT22;1646;52.450;13.326;2023-04-16T18:09:05;11.70;99.90
3268;DHT22;1646;52.450;13.326;2023-04-16T18:14:03;11.70;99.90
3268;DHT22;1646;52.450;13.326;2023-04-16T18:19:01;11.70;99.90
3268;DHT22;1646;52.450;13.326;2023-04-16T18:23:59;11.70;99.90
3268;DHT22;1646;52.450;13.326;2023-04-16T18:29:00;11.70;99.90
3268;DHT22;1646;52.450;13.326;2023-04-16T18:33:59;11.70;99.90
3268;DHT22;1646;52.450;13.326;2023-04-16T18:38:58;11.60;99.90
3268;DHT22;1646;52.450;13.326;2023-04-16T18:44:00;11.50;99.90
3268;DHT22;1646;52.450;13.326;2023-04-16T18:48:58;11.50;99.90
3268;DHT22;1646;52.450;13.326;2023-04-16T18:53:56;11.50;99.90
3268;DHT22;1646;52.450;13.326;2023-04-16T18:58:54;11.50;99.90
3268;DHT22;1646;52.450;13.326;2023-04-16T19:03:54;11.50;99.90
3268;DHT22;1646;52.450;13.326;2023-04-16T19:08:53;11.50;99.90
3268;DHT22;1646;52.450;13.326;2023-04-16T19:13:58;11.50;99.90
3268;DHT22;1646;52.450;13.326;2023-04-16T19:19:02;11.50;99.90
3268;DHT22;1646;52.450;13.326;2023-04-16T19:24:01;11.40;99.90
3268;DHT22;1646;52.450;13.326;2023-04-16T19:28:59;11.50;99.90
3268;DHT22;1646;52.450;13.326;2023-04-16T19:33:57;11.40;99.90
3268;DHT22;1646;52.450;13.326;2023-04-16T19:38:57;11.40;99.90
3268;DHT22;1646;52.450;13.326;2023-04-16T19:43:55;11.50;99.90
3268;DHT22;1646;52.450;13.326;2023-04-16T19:48:54;11.30;99.90
3268;DHT22;1646;52.450;13.326;2023-04-16T19:53:52;11.30;99.90
3268;DHT22;1646;52.450;13.326;2023-04-16T19:58:52;11.30;99.90
3268;DHT22;1646;52.450;13.326;2023-04-16T20:03:50;11.30;99.90
3268;DHT22;1646;52.450;13.326;2023-04-16T20:08:49;11.20;99.90
3268;DHT22;1646;52.450;13.326;2023-04-16T20:13:47;11.10;99.90
3268;DHT22;1646;52.450;13.326;2023-04-16T20:18:47;11.00;99.90
3268;DHT22;1646;52.450;13.326;2023-04-16T20:23:46;11.00;99.90
3268;DHT22;1646;52.450;13.326;2023-04-16T20:28:45;11.00;99.90
3268;DHT22;1646;52.450;13.326;2023-04-16T20:33:43;11.00;99.90
3268;DHT22;1646;52.450;13.326;2023-04-16T20:38:42;11.10;99.90
3268;DHT22;1646;52.450;13.326;2023-04-16T20:43:41;11.10;99.90
3268;DHT22;1646;52.450;13.326;2023-04-16T20:48:39;11.10;99.90
3268;DHT22;1646;52.450;13.326;2023-04-16T20:53:38;11.00;99.90
3268;DHT22;1646;52.450;13.326;2023-04-16T20:58:37;11.10;99.90
3268;DHT22;1646;52.450;13.326;2023-04-16T21:03:36;10.90;99.90
3268;DHT22;1646;52.450;13.326;2023-04-16T21:08:34;10.90;99.90
3268;DHT22;1646;52.450;13.326;2023-04-16T21:13:32;10.90;99.90
3268;DHT22;1646;52.450;13.326;2023-04-16T21:18:32;10.90;99.90
3268;DHT22;1646;52.450;13.326;2023-04-16T21:23:31;10.90;99.90
3268;DHT22;1646;52.450;13.326;2023-04-16T21:28:29;10.80;99.90
3268;DHT22;1646;52.450;13.326;2023-04-16T21:33:27;10.80;99.90
3268;DHT22;1646;52.450;13.326;2023-04-16T21:38:27;10.70;99.90
3268;DHT22;1646;52.450;13.326;2023-04-16T21:43:25;10.70;99.90
3268;DHT22;1646;52.450;13.326;2023-04-16T21:48:42;10.70;99.90
3268;DHT22;1646;52.450;13.326;2023-04-16T21:53:42;10.70;99.90
3268;DHT22;1646;52.450;13.326;2023-04-16T21:58:40;10.70;99.90
3268;DHT22;1646;52.450;13.326;2023-04-16T22:03:38;10.60;99.90
3268;DHT22;1646;52.450;13.326;2023-04-16T22:08:56;10.60;99.90
3268;DHT22;1646;52.450;13.326;2023-04-16T22:13:55;10.50;99.90
3268;DHT22;1646;52.450;13.326;2023-04-16T22:18:53;10.50;99.90
3268;DHT22;1646;52.450;13.326;2023-04-16T22:23:52;10.40;99.90
3268;DHT22;1646;52.450;13.326;2023-04-16T22:28:51;10.40;99.90
3268;DHT22;1646;52.450;13.326;2023-04-16T22:33:50;10.30;99.90
3268;DHT22;1646;52.450;13.326;2023-04-16T22:38:48;10.30;99.90
3268;DHT22;1646;52.450;13.326;2023-04-16T22:43:46;10.30;99.90
3268;DHT22;1646;52.450;13.326;2023-04-16T22:48:49;10.30;99.90
3268;DHT22;1646;52.450;13.326;2023-04-16T22:53:47;10.30;99.90
3268;DHT22;1646;52.450;13.326;2023-04-16T22:58:45;10.20;99.90
3268;DHT22;1646;52.450;13.326;2023-04-16T23:03:45;10.20;99.90
3268;DHT22;1646;52.450;13.326;2023-04-16T23:08:44;10.20;99.90
3268;DHT22;1646;52.450;13.326;2023-04-16T23:13:43;10.20;99.90
3268;DHT22;1646;52.450;13.326;2023-04-16T23:18:41;10.20;99.90
3268;DHT22;1646;52.450;13.326;2023-04-16T23:23:39;10.20;99.90
3268;DHT22;1646;52.450;13.326;2023-04-16T23:28:39;10.20;99.90
3268;DHT22;1646;52.450;13.326;2023-04-16T23:33:37;10.10;99.90
3268;DHT22;1646;52.450;13.326;2023-04-16T23:38:35;10.10;99.90
3268;DHT22;1646;52.450;13.326;2023-04-16T23:43:33;10.10;99.90
3268;DHT22;1646;52.450;13.326;2023-04-16T23:48:33;10.10;99.90
3268;DHT22;1646;52.450;13.326;2023-04-16T23:53:31;10.10;99.90
3268;DHT22;1646;52.450;13.326;2023-04-16T23:58:32;10.00;99.90
